sensor_id;sensor_type;location;lat;lon;timestamp;P1;durP1;ratioP1;P2;durP2;ratioP2
23410;SDS011;11878;51.774;7.220;2022-07-29T00:01:14;1.33;;;0.70;;
23410;SDS011;11878;51.774;7.220;2022-07-29T00:04:19;2.10;;;0.40;;
23410;SDS011;11878;51.774;7.220;2022-07-29T00:07:22;1.95;;;0.60;;
23410;SDS011;11878;51.774;7.220;2022-07-29T00:10:24;3.85;;;0.75;;
23410;SDS011;11878;51.774;7.220;2022-07-29T00:13:25;2.58;;;0.70;;
23410;SDS011;11878;51.774;7.220;2022-07-29T00:16:32;1.45;;;0.60;;
23410;SDS011;11878;51.774;7.220;2022-07-29T00:19:34;3.25;;;0.60;;
23410;SDS011;11878;51.774;7.220;2022-07-29T00:22:37;1.65;;;0.60;;
23410;SDS011;11878;51.774;7.220;2022-07-29T00:25:39;5.13;;;0.80;;
23410;SDS011;11878;51.774;7.220;2022-07-29T00:28:41;2.85;;;0.80;;
23410;SDS011;11878;51.774;7.220;2022-07-29T00:31:43;3.22;;;0.50;;
23410;SDS011;11878;51.774;7.220;2022-07-29T00:34:45;5.32;;;0.63;;
23410;SDS011;11878;51.774;7.220;2022-07-29T00:38:05;4.88;;;0.70;;
23410;SDS011;11878;51.774;7.220;2022-07-29T00:41:07;2.80;;;0.70;;
23410;SDS011;11878;51.774;7.220;2022-07-29T00:44:08;4.55;;;0.90;;
23410;SDS011;11878;51.774;7.220;2022-07-29T00:47:11;3.17;;;0.50;;
23410;SDS011;11878;51.774;7.220;2022-07-29T00:50:13;1.70;;;0.53;;
23410;SDS011;11878;51.774;7.220;2022-07-29T00:53:15;2.43;;;0.73;;
23410;SDS011;11878;51.774;7.220;2022-07-29T00:56:17;2.20;;;0.70;;
23410;SDS011;11878;51.774;7.220;2022-07-29T00:59:20;1.35;;;0.63;;
23410;SDS011;11878;51.774;7.220;2022-07-29T01:02:21;2.85;;;0.77;;
23410;SDS011;11878;51.774;7.220;2022-07-29T01:05:24;1.87;;;0.77;;
23410;SDS011;11878;51.774;7.220;2022-07-29T01:08:47;6.70;;;0.70;;
23410;SDS011;11878;51.774;7.220;2022-07-29T01:11:49;3.20;;;0.70;;
23410;SDS011;11878;51.774;7.220;2022-07-29T01:14:52;3.77;;;0.87;;
23410;SDS011;11878;51.774;7.220;2022-07-29T01:24:33;1.90;;;0.77;;
23410;SDS011;11878;51.774;7.220;2022-07-29T01:31:04;4.25;;;0.95;;
23410;SDS011;11878;51.774;7.220;2022-07-29T01:34:11;1.50;;;0.60;;
23410;SDS011;11878;51.774;7.220;2022-07-29T01:37:22;6.70;;;0.90;;
23410;SDS011;11878;51.774;7.220;2022-07-29T01:40:43;1.77;;;0.90;;
23410;SDS011;11878;51.774;7.220;2022-07-29T01:43:56;1.60;;;0.67;;
23410;SDS011;11878;51.774;7.220;2022-07-29T01:47:05;2.03;;;0.70;;
23410;SDS011;11878;51.774;7.220;2022-07-29T01:50:16;4.80;;;0.70;;
23410;SDS011;11878;51.774;7.220;2022-07-29T01:53:33;2.37;;;0.57;;
23410;SDS011;11878;51.774;7.220;2022-07-29T01:56:39;2.83;;;1.00;;
23410;SDS011;11878;51.774;7.220;2022-07-29T01:59:43;2.63;;;0.60;;
23410;SDS011;11878;51.774;7.220;2022-07-29T02:02:47;2.33;;;0.60;;
23410;SDS011;11878;51.774;7.220;2022-07-29T02:05:51;2.83;;;0.50;;
23410;SDS011;11878;51.774;7.220;2022-07-29T02:08:54;1.07;;;0.50;;
23410;SDS011;11878;51.774;7.220;2022-07-29T02:11:57;1.67;;;0.90;;
23410;SDS011;11878;51.774;7.220;2022-07-29T02:15:03;3.67;;;0.83;;
23410;SDS011;11878;51.774;7.220;2022-07-29T02:18:07;2.10;;;0.90;;
23410;SDS011;11878;51.774;7.220;2022-07-29T02:21:12;1.50;;;0.73;;
23410;SDS011;11878;51.774;7.220;2022-07-29T02:24:17;1.53;;;0.67;;
23410;SDS011;11878;51.774;7.220;2022-07-29T02:27:20;2.73;;;0.80;;
23410;SDS011;11878;51.774;7.220;2022-07-29T02:30:22;5.67;;;0.83;;
23410;SDS011;11878;51.774;7.220;2022-07-29T02:33:26;3.40;;;0.60;;
23410;SDS011;11878;51.774;7.220;2022-07-29T02:36:30;3.80;;;1.00;;
23410;SDS011;11878;51.774;7.220;2022-07-29T02:39:34;2.60;;;0.80;;
23410;SDS011;11878;51.774;7.220;2022-07-29T02:42:37;7.10;;;0.90;;
23410;SDS011;11878;51.774;7.220;2022-07-29T02:45:42;1.60;;;0.70;;
23410;SDS011;11878;51.774;7.220;2022-07-29T02:48:49;2.37;;;0.93;;
23410;SDS011;11878;51.774;7.220;2022-07-29T02:52:00;4.77;;;0.97;;
23410;SDS011;11878;51.774;7.220;2022-07-29T02:55:13;1.73;;;0.70;;
23410;SDS011;11878;51.774;7.220;2022-07-29T02:58:53;1.43;;;0.67;;
23410;SDS011;11878;51.774;7.220;2022-07-29T03:01:57;3.47;;;1.00;;
23410;SDS011;11878;51.774;7.220;2022-07-29T03:05:00;4.43;;;1.20;;
23410;SDS011;11878;51.774;7.220;2022-07-29T03:08:04;2.20;;;0.57;;
23410;SDS011;11878;51.774;7.220;2022-07-29T03:11:07;2.57;;;0.63;;
23410;SDS011;11878;51.774;7.220;2022-07-29T03:14:10;2.00;;;0.70;;
23410;SDS011;11878;51.774;7.220;2022-07-29T03:17:13;2.73;;;1.00;;
23410;SDS011;11878;51.774;7.220;2022-07-29T03:20:17;1.30;;;0.53;;
23410;SDS011;11878;51.774;7.220;2022-07-29T03:23:20;5.57;;;1.10;;
23410;SDS011;11878;51.774;7.220;2022-07-29T03:26:23;2.73;;;0.90;;
23410;SDS011;11878;51.774;7.220;2022-07-29T03:29:26;4.00;;;0.75;;
23410;SDS011;11878;51.774;7.220;2022-07-29T03:32:34;2.37;;;0.93;;
23410;SDS011;11878;51.774;7.220;2022-07-29T03:35:36;2.57;;;0.80;;
23410;SDS011;11878;51.774;7.220;2022-07-29T03:38:38;2.47;;;0.80;;
23410;SDS011;11878;51.774;7.220;2022-07-29T03:41:44;2.93;;;0.70;;
23410;SDS011;11878;51.774;7.220;2022-07-29T03:44:47;1.35;;;0.77;;
23410;SDS011;11878;51.774;7.220;2022-07-29T03:47:52;1.60;;;0.67;;
23410;SDS011;11878;51.774;7.220;2022-07-29T03:51:01;2.37;;;0.60;;
23410;SDS011;11878;51.774;7.220;2022-07-29T03:54:03;4.53;;;0.80;;
23410;SDS011;11878;51.774;7.220;2022-07-29T03:57:14;2.90;;;0.80;;
23410;SDS011;11878;51.774;7.220;2022-07-29T04:00:17;4.53;;;0.97;;
23410;SDS011;11878;51.774;7.220;2022-07-29T04:03:20;1.00;;;0.70;;
23410;SDS011;11878;51.774;7.220;2022-07-29T04:06:23;3.58;;;0.90;;
23410;SDS011;11878;51.774;7.220;2022-07-29T04:09:26;6.83;;;0.87;;
23410;SDS011;11878;51.774;7.220;2022-07-29T04:12:28;4.20;;;0.80;;
23410;SDS011;11878;51.774;7.220;2022-07-29T04:15:30;3.73;;;0.83;;
23410;SDS011;11878;51.774;7.220;2022-07-29T04:18:32;1.23;;;0.80;;
23410;SDS011;11878;51.774;7.220;2022-07-29T04:21:37;1.97;;;0.90;;
23410;SDS011;11878;51.774;7.220;2022-07-29T04:24:40;5.20;;;0.80;;
23410;SDS011;11878;51.774;7.220;2022-07-29T04:27:44;5.43;;;1.00;;
23410;SDS011;11878;51.774;7.220;2022-07-29T04:31:01;5.80;;;0.90;;
23410;SDS011;11878;51.774;7.220;2022-07-29T04:34:03;1.20;;;0.83;;
23410;SDS011;11878;51.774;7.220;2022-07-29T04:37:05;3.20;;;0.97;;
23410;SDS011;11878;51.774;7.220;2022-07-29T04:40:07;4.07;;;1.10;;
23410;SDS011;11878;51.774;7.220;2022-07-29T04:43:09;5.47;;;0.90;;
23410;SDS011;11878;51.774;7.220;2022-07-29T04:46:13;2.00;;;0.83;;
23410;SDS011;11878;51.774;7.220;2022-07-29T04:49:15;1.83;;;1.00;;
23410;SDS011;11878;51.774;7.220;2022-07-29T04:52:17;6.43;;;1.07;;
23410;SDS011;11878;51.774;7.220;2022-07-29T04:55:18;7.73;;;1.10;;
23410;SDS011;11878;51.774;7.220;2022-07-29T04:58:20;3.00;;;1.20;;
23410;SDS011;11878;51.774;7.220;2022-07-29T05:01:24;5.30;;;1.00;;
23410;SDS011;11878;51.774;7.220;2022-07-29T05:04:26;3.70;;;1.10;;
23410;SDS011;11878;51.774;7.220;2022-07-29T05:07:27;1.37;;;0.93;;
23410;SDS011;11878;51.774;7.220;2022-07-29T05:10:29;7.90;;;1.40;;
23410;SDS011;11878;51.774;7.220;2022-07-29T05:13:31;2.93;;;1.10;;
23410;SDS011;11878;51.774;7.220;2022-07-29T05:16:45;3.53;;;1.00;;
23410;SDS011;11878;51.774;7.220;2022-07-29T05:19:47;1.67;;;1.00;;
23410;SDS011;11878;51.774;7.220;2022-07-29T05:22:49;1.53;;;0.80;;
23410;SDS011;11878;51.774;7.220;2022-07-29T05:25:51;2.83;;;0.97;;
23410;SDS011;11878;51.774;7.220;2022-07-29T05:28:52;3.40;;;1.13;;
23410;SDS011;11878;51.774;7.220;2022-07-29T05:31:55;3.47;;;1.03;;
23410;SDS011;11878;51.774;7.220;2022-07-29T05:34:57;3.67;;;1.30;;
23410;SDS011;11878;51.774;7.220;2022-07-29T05:37:59;3.10;;;1.50;;
23410;SDS011;11878;51.774;7.220;2022-07-29T05:41:01;3.23;;;1.10;;
23410;SDS011;11878;51.774;7.220;2022-07-29T05:44:03;2.93;;;1.27;;
23410;SDS011;11878;51.774;7.220;2022-07-29T05:47:04;3.70;;;1.30;;
23410;SDS011;11878;51.774;7.220;2022-07-29T05:50:07;3.53;;;1.27;;
23410;SDS011;11878;51.774;7.220;2022-07-29T05:53:09;2.50;;;1.30;;
23410;SDS011;11878;51.774;7.220;2022-07-29T05:56:20;6.37;;;1.23;;
23410;SDS011;11878;51.774;7.220;2022-07-29T05:59:22;1.80;;;1.30;;
23410;SDS011;11878;51.774;7.220;2022-07-29T06:02:30;4.27;;;1.60;;
23410;SDS011;11878;51.774;7.220;2022-07-29T06:05:32;4.20;;;1.90;;
23410;SDS011;11878;51.774;7.220;2022-07-29T06:08:34;2.63;;;1.40;;
23410;SDS011;11878;51.774;7.220;2022-07-29T06:11:37;6.33;;;1.63;;
23410;SDS011;11878;51.774;7.220;2022-07-29T06:14:39;5.27;;;1.60;;
23410;SDS011;11878;51.774;7.220;2022-07-29T06:17:40;4.67;;;1.87;;
23410;SDS011;11878;51.774;7.220;2022-07-29T06:21:01;6.20;;;1.63;;
23410;SDS011;11878;51.774;7.220;2022-07-29T06:24:13;6.40;;;1.57;;
23410;SDS011;11878;51.774;7.220;2022-07-29T06:27:16;3.97;;;1.50;;
23410;SDS011;11878;51.774;7.220;2022-07-29T06:30:17;3.83;;;1.70;;
23410;SDS011;11878;51.774;7.220;2022-07-29T06:33:19;9.67;;;1.73;;
23410;SDS011;11878;51.774;7.220;2022-07-29T06:36:21;1.30;;;1.00;;
23410;SDS011;11878;51.774;7.220;2022-07-29T06:39:25;3.43;;;1.67;;
23410;SDS011;11878;51.774;7.220;2022-07-29T06:42:27;2.07;;;1.43;;
23410;SDS011;11878;51.774;7.220;2022-07-29T06:45:28;6.43;;;1.50;;
23410;SDS011;11878;51.774;7.220;2022-07-29T06:48:30;3.80;;;1.50;;
23410;SDS011;11878;51.774;7.220;2022-07-29T06:51:33;2.20;;;1.43;;
23410;SDS011;11878;51.774;7.220;2022-07-29T06:54:34;5.83;;;1.83;;
23410;SDS011;11878;51.774;7.220;2022-07-29T06:57:36;2.23;;;1.37;;
23410;SDS011;11878;51.774;7.220;2022-07-29T07:00:38;7.20;;;1.80;;
23410;SDS011;11878;51.774;7.220;2022-07-29T07:03:40;3.17;;;1.53;;
23410;SDS011;11878;51.774;7.220;2022-07-29T07:06:42;6.20;;;1.97;;
23410;SDS011;11878;51.774;7.220;2022-07-29T07:09:45;3.60;;;1.40;;
23410;SDS011;11878;51.774;7.220;2022-07-29T07:12:46;6.63;;;1.70;;
23410;SDS011;11878;51.774;7.220;2022-07-29T07:15:48;5.60;;;1.50;;
23410;SDS011;11878;51.774;7.220;2022-07-29T07:18:51;4.07;;;1.73;;
23410;SDS011;11878;51.774;7.220;2022-07-29T07:21:53;6.07;;;1.87;;
23410;SDS011;11878;51.774;7.220;2022-07-29T07:24:56;3.90;;;1.93;;
23410;SDS011;11878;51.774;7.220;2022-07-29T07:27:57;5.27;;;1.70;;
23410;SDS011;11878;51.774;7.220;2022-07-29T07:30:59;3.37;;;1.70;;
23410;SDS011;11878;51.774;7.220;2022-07-29T07:34:01;3.23;;;1.60;;
23410;SDS011;11878;51.774;7.220;2022-07-29T07:37:02;2.93;;;1.40;;
23410;SDS011;11878;51.774;7.220;2022-07-29T07:40:04;2.67;;;1.70;;
23410;SDS011;11878;51.774;7.220;2022-07-29T07:43:06;3.30;;;1.37;;
23410;SDS011;11878;51.774;7.220;2022-07-29T07:46:08;3.10;;;1.50;;
23410;SDS011;11878;51.774;7.220;2022-07-29T07:49:10;3.93;;;1.67;;
23410;SDS011;11878;51.774;7.220;2022-07-29T07:52:13;2.20;;;1.23;;
23410;SDS011;11878;51.774;7.220;2022-07-29T07:55:16;4.13;;;1.13;;
23410;SDS011;11878;51.774;7.220;2022-07-29T07:58:18;6.67;;;1.63;;
23410;SDS011;11878;51.774;7.220;2022-07-29T08:01:20;5.00;;;1.33;;
23410;SDS011;11878;51.774;7.220;2022-07-29T08:04:24;5.20;;;1.43;;
23410;SDS011;11878;51.774;7.220;2022-07-29T08:07:29;2.60;;;1.30;;
23410;SDS011;11878;51.774;7.220;2022-07-29T08:10:31;4.10;;;1.40;;
23410;SDS011;11878;51.774;7.220;2022-07-29T08:13:51;5.17;;;1.40;;
23410;SDS011;11878;51.774;7.220;2022-07-29T08:16:53;4.23;;;1.47;;
23410;SDS011;11878;51.774;7.220;2022-07-29T08:19:55;8.37;;;1.83;;
23410;SDS011;11878;51.774;7.220;2022-07-29T08:22:56;3.77;;;1.17;;
23410;SDS011;11878;51.774;7.220;2022-07-29T08:25:58;7.20;;;1.60;;
23410;SDS011;11878;51.774;7.220;2022-07-29T08:29:00;8.00;;;1.70;;
23410;SDS011;11878;51.774;7.220;2022-07-29T08:32:02;2.07;;;1.23;;
23410;SDS011;11878;51.774;7.220;2022-07-29T08:35:04;5.93;;;1.83;;
23410;SDS011;11878;51.774;7.220;2022-07-29T08:38:06;8.10;;;1.90;;
23410;SDS011;11878;51.774;7.220;2022-07-29T08:41:08;2.63;;;1.60;;
23410;SDS011;11878;51.774;7.220;2022-07-29T08:44:10;5.30;;;1.53;;
23410;SDS011;11878;51.774;7.220;2022-07-29T08:47:13;5.10;;;1.40;;
23410;SDS011;11878;51.774;7.220;2022-07-29T08:50:15;2.70;;;1.30;;
23410;SDS011;11878;51.774;7.220;2022-07-29T08:53:17;4.37;;;1.23;;
23410;SDS011;11878;51.774;7.220;2022-07-29T08:56:20;2.67;;;1.30;;
23410;SDS011;11878;51.774;7.220;2022-07-29T08:59:22;2.73;;;1.50;;
23410;SDS011;11878;51.774;7.220;2022-07-29T09:02:28;2.53;;;1.20;;
23410;SDS011;11878;51.774;7.220;2022-07-29T09:05:34;5.90;;;1.23;;
23410;SDS011;11878;51.774;7.220;2022-07-29T09:08:42;2.87;;;1.00;;
23410;SDS011;11878;51.774;7.220;2022-07-29T09:11:45;2.40;;;1.07;;
23410;SDS011;11878;51.774;7.220;2022-07-29T09:14:46;2.03;;;1.17;;
23410;SDS011;11878;51.774;7.220;2022-07-29T09:17:49;9.30;;;1.63;;
23410;SDS011;11878;51.774;7.220;2022-07-29T09:20:51;3.22;;;1.40;;
23410;SDS011;11878;51.774;7.220;2022-07-29T09:24:12;4.53;;;1.23;;
23410;SDS011;11878;51.774;7.220;2022-07-29T09:27:19;3.73;;;1.50;;
23410;SDS011;11878;51.774;7.220;2022-07-29T09:30:27;3.67;;;1.30;;
23410;SDS011;11878;51.774;7.220;2022-07-29T09:33:32;4.20;;;1.40;;
23410;SDS011;11878;51.774;7.220;2022-07-29T09:36:38;6.17;;;1.63;;
23410;SDS011;11878;51.774;7.220;2022-07-29T09:39:41;4.80;;;1.40;;
23410;SDS011;11878;51.774;7.220;2022-07-29T09:42:47;2.75;;;1.85;;
23410;SDS011;11878;51.774;7.220;2022-07-29T09:45:49;3.17;;;1.40;;
23410;SDS011;11878;51.774;7.220;2022-07-29T09:49:10;4.20;;;1.60;;
23410;SDS011;11878;51.774;7.220;2022-07-29T09:52:13;3.22;;;1.75;;
23410;SDS011;11878;51.774;7.220;2022-07-29T09:55:15;6.00;;;1.87;;
23410;SDS011;11878;51.774;7.220;2022-07-29T09:58:21;3.70;;;1.60;;
23410;SDS011;11878;51.774;7.220;2022-07-29T10:01:29;3.77;;;1.93;;
23410;SDS011;11878;51.774;7.220;2022-07-29T10:04:38;6.10;;;1.87;;
23410;SDS011;11878;51.774;7.220;2022-07-29T10:07:55;4.73;;;2.50;;
23410;SDS011;11878;51.774;7.220;2022-07-29T10:14:15;5.93;;;2.10;;
23410;SDS011;11878;51.774;7.220;2022-07-29T10:17:17;6.23;;;2.10;;
23410;SDS011;11878;51.774;7.220;2022-07-29T10:20:20;4.80;;;2.30;;
23410;SDS011;11878;51.774;7.220;2022-07-29T10:23:23;4.93;;;2.37;;
23410;SDS011;11878;51.774;7.220;2022-07-29T10:26:26;5.67;;;2.63;;
23410;SDS011;11878;51.774;7.220;2022-07-29T10:29:28;6.83;;;2.10;;
23410;SDS011;11878;51.774;7.220;2022-07-29T10:32:39;4.15;;;2.05;;
23410;SDS011;11878;51.774;7.220;2022-07-29T10:36:10;7.85;;;2.67;;
23410;SDS011;11878;51.774;7.220;2022-07-29T10:42:45;5.60;;;2.50;;
23410;SDS011;11878;51.774;7.220;2022-07-29T10:45:48;3.53;;;2.47;;
23410;SDS011;11878;51.774;7.220;2022-07-29T10:49:04;6.90;;;2.97;;
23410;SDS011;11878;51.774;7.220;2022-07-29T10:52:51;6.57;;;2.58;;
23410;SDS011;11878;51.774;7.220;2022-07-29T10:55:54;5.22;;;2.63;;
23410;SDS011;11878;51.774;7.220;2022-07-29T11:05:54;7.47;;;2.78;;
23410;SDS011;11878;51.774;7.220;2022-07-29T11:09:16;4.23;;;2.37;;
23410;SDS011;11878;51.774;7.220;2022-07-29T11:15:53;11.65;;;3.22;;
23410;SDS011;11878;51.774;7.220;2022-07-29T11:22:32;7.17;;;2.97;;
23410;SDS011;11878;51.774;7.220;2022-07-29T11:25:35;6.97;;;2.60;;
23410;SDS011;11878;51.774;7.220;2022-07-29T11:31:55;4.63;;;2.67;;
23410;SDS011;11878;51.774;7.220;2022-07-29T11:35:33;5.83;;;2.87;;
23410;SDS011;11878;51.774;7.220;2022-07-29T11:38:39;21.83;;;3.00;;
23410;SDS011;11878;51.774;7.220;2022-07-29T11:41:41;6.00;;;2.20;;
23410;SDS011;11878;51.774;7.220;2022-07-29T11:44:58;7.85;;;2.65;;
23410;SDS011;11878;51.774;7.220;2022-07-29T11:48:30;5.47;;;2.50;;
23410;SDS011;11878;51.774;7.220;2022-07-29T11:51:35;6.85;;;2.30;;
23410;SDS011;11878;51.774;7.220;2022-07-29T11:54:49;4.30;;;2.42;;
23410;SDS011;11878;51.774;7.220;2022-07-29T11:57:59;5.33;;;2.27;;
23410;SDS011;11878;51.774;7.220;2022-07-29T12:01:04;4.05;;;2.42;;
23410;SDS011;11878;51.774;7.220;2022-07-29T12:04:07;6.93;;;2.60;;
23410;SDS011;11878;51.774;7.220;2022-07-29T12:07:11;4.63;;;2.63;;
23410;SDS011;11878;51.774;7.220;2022-07-29T12:10:15;2.63;;;1.75;;
23410;SDS011;11878;51.774;7.220;2022-07-29T12:13:20;4.93;;;2.30;;
23410;SDS011;11878;51.774;7.220;2022-07-29T12:16:37;6.10;;;2.78;;
23410;SDS011;11878;51.774;7.220;2022-07-29T12:19:44;4.65;;;2.20;;
23410;SDS011;11878;51.774;7.220;2022-07-29T12:22:46;5.05;;;2.42;;
23410;SDS011;11878;51.774;7.220;2022-07-29T12:25:49;8.00;;;2.47;;
23410;SDS011;11878;51.774;7.220;2022-07-29T12:28:51;3.55;;;1.75;;
23410;SDS011;11878;51.774;7.220;2022-07-29T12:31:54;5.95;;;2.38;;
23410;SDS011;11878;51.774;7.220;2022-07-29T12:34:58;3.38;;;2.00;;
23410;SDS011;11878;51.774;7.220;2022-07-29T12:38:03;5.32;;;1.63;;
23410;SDS011;11878;51.774;7.220;2022-07-29T12:41:06;3.83;;;1.88;;
23410;SDS011;11878;51.774;7.220;2022-07-29T12:44:08;4.75;;;1.77;;
23410;SDS011;11878;51.774;7.220;2022-07-29T12:47:09;9.18;;;2.10;;
23410;SDS011;11878;51.774;7.220;2022-07-29T12:50:12;5.68;;;1.45;;
23410;SDS011;11878;51.774;7.220;2022-07-29T12:53:23;3.30;;;1.60;;
23410;SDS011;11878;51.774;7.220;2022-07-29T12:56:26;8.15;;;2.10;;
23410;SDS011;11878;51.774;7.220;2022-07-29T12:59:43;8.80;;;2.35;;
23410;SDS011;11878;51.774;7.220;2022-07-29T13:02:45;3.83;;;1.50;;
23410;SDS011;11878;51.774;7.220;2022-07-29T13:05:59;3.80;;;1.45;;
23410;SDS011;11878;51.774;7.220;2022-07-29T13:09:03;5.68;;;1.88;;
23410;SDS011;11878;51.774;7.220;2022-07-29T13:12:13;3.05;;;1.60;;
23410;SDS011;11878;51.774;7.220;2022-07-29T13:15:15;9.48;;;1.98;;
23410;SDS011;11878;51.774;7.220;2022-07-29T13:18:30;3.97;;;1.30;;
23410;SDS011;11878;51.774;7.220;2022-07-29T13:21:33;2.78;;;1.20;;
23410;SDS011;11878;51.774;7.220;2022-07-29T13:24:48;4.25;;;1.60;;
23410;SDS011;11878;51.774;7.220;2022-07-29T13:27:54;4.75;;;1.35;;
23410;SDS011;11878;51.774;7.220;2022-07-29T13:30:56;3.40;;;1.38;;
23410;SDS011;11878;51.774;7.220;2022-07-29T13:33:58;3.33;;;1.20;;
23410;SDS011;11878;51.774;7.220;2022-07-29T13:37:00;4.15;;;1.17;;
23410;SDS011;11878;51.774;7.220;2022-07-29T13:40:02;2.75;;;1.42;;
23410;SDS011;11878;51.774;7.220;2022-07-29T13:43:05;2.60;;;0.98;;
23410;SDS011;11878;51.774;7.220;2022-07-29T13:46:09;5.63;;;1.65;;
23410;SDS011;11878;51.774;7.220;2022-07-29T13:49:11;1.65;;;0.98;;
23410;SDS011;11878;51.774;7.220;2022-07-29T13:52:13;2.78;;;1.10;;
23410;SDS011;11878;51.774;7.220;2022-07-29T13:55:15;7.40;;;1.33;;
23410;SDS011;11878;51.774;7.220;2022-07-29T13:58:17;3.72;;;1.10;;
23410;SDS011;11878;51.774;7.220;2022-07-29T14:01:19;5.63;;;1.13;;
23410;SDS011;11878;51.774;7.220;2022-07-29T14:04:21;5.38;;;1.63;;
23410;SDS011;11878;51.774;7.220;2022-07-29T14:07:24;5.00;;;1.20;;
23410;SDS011;11878;51.774;7.220;2022-07-29T14:10:26;8.18;;;1.70;;
23410;SDS011;11878;51.774;7.220;2022-07-29T14:13:28;4.60;;;1.40;;
23410;SDS011;11878;51.774;7.220;2022-07-29T14:16:30;5.40;;;1.60;;
23410;SDS011;11878;51.774;7.220;2022-07-29T14:19:31;5.50;;;1.48;;
23410;SDS011;11878;51.774;7.220;2022-07-29T14:22:37;2.50;;;0.95;;
23410;SDS011;11878;51.774;7.220;2022-07-29T14:25:42;3.30;;;1.00;;
23410;SDS011;11878;51.774;7.220;2022-07-29T14:28:45;4.60;;;1.00;;
23410;SDS011;11878;51.774;7.220;2022-07-29T14:31:47;6.43;;;1.50;;
23410;SDS011;11878;51.774;7.220;2022-07-29T14:34:48;6.53;;;1.20;;
23410;SDS011;11878;51.774;7.220;2022-07-29T14:37:50;2.65;;;1.10;;
23410;SDS011;11878;51.774;7.220;2022-07-29T14:40:52;5.50;;;1.30;;
23410;SDS011;11878;51.774;7.220;2022-07-29T14:43:54;3.67;;;1.15;;
23410;SDS011;11878;51.774;7.220;2022-07-29T14:46:59;5.55;;;1.63;;
23410;SDS011;11878;51.774;7.220;2022-07-29T14:50:08;7.50;;;1.63;;
23410;SDS011;11878;51.774;7.220;2022-07-29T14:53:10;4.05;;;1.00;;
23410;SDS011;11878;51.774;7.220;2022-07-29T14:56:14;3.22;;;1.10;;
23410;SDS011;11878;51.774;7.220;2022-07-29T14:59:35;2.72;;;1.00;;
23410;SDS011;11878;51.774;7.220;2022-07-29T15:02:37;5.38;;;1.63;;
23410;SDS011;11878;51.774;7.220;2022-07-29T15:05:59;2.60;;;1.17;;
23410;SDS011;11878;51.774;7.220;2022-07-29T15:09:01;1.77;;;1.05;;
23410;SDS011;11878;51.774;7.220;2022-07-29T15:12:03;7.85;;;1.40;;
23410;SDS011;11878;51.774;7.220;2022-07-29T15:15:05;3.47;;;1.08;;
23410;SDS011;11878;51.774;7.220;2022-07-29T15:18:08;3.72;;;1.13;;
23410;SDS011;11878;51.774;7.220;2022-07-29T15:21:10;3.33;;;1.30;;
23410;SDS011;11878;51.774;7.220;2022-07-29T15:24:12;4.43;;;1.20;;
23410;SDS011;11878;51.774;7.220;2022-07-29T15:27:13;3.97;;;1.10;;
23410;SDS011;11878;51.774;7.220;2022-07-29T15:30:15;3.50;;;1.27;;
23410;SDS011;11878;51.774;7.220;2022-07-29T15:33:33;4.45;;;1.20;;
23410;SDS011;11878;51.774;7.220;2022-07-29T15:36:35;2.08;;;1.00;;
23410;SDS011;11878;51.774;7.220;2022-07-29T15:39:54;3.28;;;1.45;;
23410;SDS011;11878;51.774;7.220;2022-07-29T15:43:03;3.88;;;1.20;;
23410;SDS011;11878;51.774;7.220;2022-07-29T15:46:07;2.75;;;1.23;;
23410;SDS011;11878;51.774;7.220;2022-07-29T15:49:27;6.07;;;1.42;;
23410;SDS011;11878;51.774;7.220;2022-07-29T15:52:49;5.57;;;1.45;;
23410;SDS011;11878;51.774;7.220;2022-07-29T15:55:51;3.08;;;1.33;;
23410;SDS011;11878;51.774;7.220;2022-07-29T15:58:53;5.03;;;1.42;;
23410;SDS011;11878;51.774;7.220;2022-07-29T16:01:54;5.05;;;1.40;;
23410;SDS011;11878;51.774;7.220;2022-07-29T16:04:56;3.50;;;1.42;;
23410;SDS011;11878;51.774;7.220;2022-07-29T16:07:58;5.35;;;1.20;;
23410;SDS011;11878;51.774;7.220;2022-07-29T16:11:01;6.05;;;1.30;;
23410;SDS011;11878;51.774;7.220;2022-07-29T16:14:03;3.25;;;1.30;;
23410;SDS011;11878;51.774;7.220;2022-07-29T16:17:09;2.88;;;1.27;;
23410;SDS011;11878;51.774;7.220;2022-07-29T16:20:15;4.75;;;1.50;;
23410;SDS011;11878;51.774;7.220;2022-07-29T16:23:17;2.08;;;0.95;;
23410;SDS011;11878;51.774;7.220;2022-07-29T16:26:19;2.85;;;1.27;;
23410;SDS011;11878;51.774;7.220;2022-07-29T16:29:20;4.68;;;1.45;;
23410;SDS011;11878;51.774;7.220;2022-07-29T16:32:22;5.75;;;1.33;;
23410;SDS011;11878;51.774;7.220;2022-07-29T16:35:24;6.25;;;1.77;;
23410;SDS011;11878;51.774;7.220;2022-07-29T16:38:40;6.68;;;1.60;;
23410;SDS011;11878;51.774;7.220;2022-07-29T16:41:47;2.05;;;1.15;;
23410;SDS011;11878;51.774;7.220;2022-07-29T16:44:49;3.20;;;1.23;;
23410;SDS011;11878;51.774;7.220;2022-07-29T16:47:52;9.77;;;2.03;;
23410;SDS011;11878;51.774;7.220;2022-07-29T16:51:00;3.38;;;1.27;;
23410;SDS011;11878;51.774;7.220;2022-07-29T16:54:02;3.08;;;1.85;;
23410;SDS011;11878;51.774;7.220;2022-07-29T16:57:04;8.77;;;1.80;;
23410;SDS011;11878;51.774;7.220;2022-07-29T17:00:06;3.30;;;1.40;;
23410;SDS011;11878;51.774;7.220;2022-07-29T17:03:08;2.70;;;1.10;;
23410;SDS011;11878;51.774;7.220;2022-07-29T17:06:10;4.18;;;1.17;;
23410;SDS011;11878;51.774;7.220;2022-07-29T17:09:12;3.42;;;1.30;;
23410;SDS011;11878;51.774;7.220;2022-07-29T17:12:18;6.05;;;1.30;;
23410;SDS011;11878;51.774;7.220;2022-07-29T17:15:19;8.20;;;1.50;;
23410;SDS011;11878;51.774;7.220;2022-07-29T17:18:21;3.75;;;1.00;;
23410;SDS011;11878;51.774;7.220;2022-07-29T17:21:25;3.60;;;1.38;;
23410;SDS011;11878;51.774;7.220;2022-07-29T17:24:27;1.95;;;1.13;;
23410;SDS011;11878;51.774;7.220;2022-07-29T17:27:29;6.30;;;1.50;;
23410;SDS011;11878;51.774;7.220;2022-07-29T17:30:32;4.05;;;1.77;;
23410;SDS011;11878;51.774;7.220;2022-07-29T17:33:34;4.63;;;1.23;;
23410;SDS011;11878;51.774;7.220;2022-07-29T17:36:36;2.20;;;1.25;;
23410;SDS011;11878;51.774;7.220;2022-07-29T17:39:38;4.00;;;1.20;;
23410;SDS011;11878;51.774;7.220;2022-07-29T17:42:41;1.73;;;1.13;;
23410;SDS011;11878;51.774;7.220;2022-07-29T17:45:43;7.13;;;1.52;;
23410;SDS011;11878;51.774;7.220;2022-07-29T17:48:50;5.25;;;1.27;;
23410;SDS011;11878;51.774;7.220;2022-07-29T17:51:53;2.85;;;1.30;;
23410;SDS011;11878;51.774;7.220;2022-07-29T17:55:01;4.38;;;1.38;;
23410;SDS011;11878;51.774;7.220;2022-07-29T17:58:02;7.22;;;1.52;;
23410;SDS011;11878;51.774;7.220;2022-07-29T18:01:04;5.00;;;1.33;;
23410;SDS011;11878;51.774;7.220;2022-07-29T18:04:07;5.18;;;1.40;;
23410;SDS011;11878;51.774;7.220;2022-07-29T18:07:09;7.65;;;1.83;;
23410;SDS011;11878;51.774;7.220;2022-07-29T18:10:11;4.03;;;1.60;;
23410;SDS011;11878;51.774;7.220;2022-07-29T18:13:13;6.68;;;1.70;;
23410;SDS011;11878;51.774;7.220;2022-07-29T18:16:16;5.22;;;1.30;;
23410;SDS011;11878;51.774;7.220;2022-07-29T18:19:19;5.55;;;1.30;;
23410;SDS011;11878;51.774;7.220;2022-07-29T18:22:20;3.75;;;1.50;;
23410;SDS011;11878;51.774;7.220;2022-07-29T18:25:22;3.78;;;1.42;;
23410;SDS011;11878;51.774;7.220;2022-07-29T18:28:25;2.85;;;1.50;;
23410;SDS011;11878;51.774;7.220;2022-07-29T18:31:27;2.25;;;1.75;;
23410;SDS011;11878;51.774;7.220;2022-07-29T18:34:29;3.45;;;1.58;;
23410;SDS011;11878;51.774;7.220;2022-07-29T18:37:32;2.47;;;1.33;;
23410;SDS011;11878;51.774;7.220;2022-07-29T18:40:54;9.00;;;1.73;;
23410;SDS011;11878;51.774;7.220;2022-07-29T18:43:56;4.07;;;1.50;;
23410;SDS011;11878;51.774;7.220;2022-07-29T18:46:58;3.88;;;1.10;;
23410;SDS011;11878;51.774;7.220;2022-07-29T18:50:02;5.35;;;1.20;;
23410;SDS011;11878;51.774;7.220;2022-07-29T18:53:05;6.32;;;1.65;;
23410;SDS011;11878;51.774;7.220;2022-07-29T18:56:07;4.45;;;1.60;;
23410;SDS011;11878;51.774;7.220;2022-07-29T18:59:08;6.10;;;1.25;;
23410;SDS011;11878;51.774;7.220;2022-07-29T19:02:10;6.97;;;1.70;;
23410;SDS011;11878;51.774;7.220;2022-07-29T19:05:12;3.60;;;1.23;;
23410;SDS011;11878;51.774;7.220;2022-07-29T19:08:14;4.07;;;1.13;;